Terminal Aerodrome Forecast
Issued by NWS

Home | Current Version | Previous Version | Graphics & Text | Print | Product List | Glossary On
Versions: 1 2 3 4 5 6 7 8 9 10 11 12 13 14 15 16 17 18 19 20 21 22 23 24 25 26 27 28 29 30 31 32 33 34 35
000
FTUS43 KGRB 292300
TAFRHI
TAF
KRHI 292338Z 3000/3024 31009KT P6SM VCSH SCT035 SCT070
      TEMPO 3000/3002 6SM -SHRA BKN035
     FM300400 33003KT P6SM SCT006 SCT060
     FM300700 VRB02KT 4SM BR SCT006 SCT060
      TEMPO 3007/3011 1 1/2SM BR BKN004
     FM301100 28006KT P6SM SCT100
     FM301800 29009KT P6SM BKN050=

USA.gov is the U.S. government's official web portal to all federal, state and local government web resources and services.